sensor_id;sensor_type;location;lat;lon;timestamp;pressure;altitude;pressure_sealevel;temperature;humidity
67545;BME280;54380;47.770;11.150;2023-04-01T02:36:16;93703.00;;;8.97;57.53
67545;BME280;54380;47.770;11.150;2023-04-01T02:38:58;93707.50;;;8.92;58.16
67545;BME280;54380;47.770;11.150;2023-04-01T02:41:40;93698.03;;;8.91;58.31
67545;BME280;54380;47.770;11.150;2023-04-01T02:44:09;93705.13;;;8.90;58.63
67545;BME280;54380;47.770;11.150;2023-04-01T02:46:50;93690.94;;;8.81;58.71
67545;BME280;54380;47.770;11.150;2023-04-01T07:33:23;93716.81;;;11.29;51.70
67545;BME280;54380;47.770;11.150;2023-04-01T07:36:13;93721.34;;;11.48;50.95
67545;BME280;54380;47.770;11.150;2023-04-01T07:39:05;93718.59;;;11.58;50.44
67545;BME280;54380;47.770;11.150;2023-04-01T07:42:04;93718.19;;;11.70;50.52
67545;BME280;54380;47.770;11.150;2023-04-01T07:44:39;93722.75;;;11.83;48.74
67545;BME280;54380;47.770;11.150;2023-04-01T07:47:30;93710.47;;;11.92;49.49
67545;BME280;54380;47.770;11.150;2023-04-01T07:50:33;93731.16;;;12.09;48.55
67545;BME280;54380;47.770;11.150;2023-04-01T07:53:17;93726.50;;;12.20;49.08
67545;BME280;54380;47.770;11.150;2023-04-01T07:56:06;93736.09;;;12.29;49.22
67545;BME280;54380;47.770;11.150;2023-04-01T07:58:52;93734.50;;;12.47;48.06
67545;BME280;54380;47.770;11.150;2023-04-01T08:02:03;93738.66;;;12.54;48.13
67545;BME280;54380;47.770;11.150;2023-04-01T08:04:56;93720.56;;;12.74;47.96
67545;BME280;54380;47.770;11.150;2023-04-01T08:07:46;93726.16;;;12.87;46.59
67545;BME280;54380;47.770;11.150;2023-04-01T08:10:50;93722.75;;;12.86;47.04
67545;BME280;54380;47.770;11.150;2023-04-01T08:14:03;93722.56;;;12.83;47.34
67545;BME280;54380;47.770;11.150;2023-04-01T08:17:19;93726.28;;;12.95;46.42
67545;BME280;54380;47.770;11.150;2023-04-01T08:20:05;93717.06;;;13.07;44.55
67545;BME280;54380;47.770;11.150;2023-04-01T08:22:38;93734.16;;;13.14;45.55
67545;BME280;54380;47.770;11.150;2023-04-01T08:25:19;93738.97;;;13.12;45.44
67545;BME280;54380;47.770;11.150;2023-04-01T08:27:48;93732.47;;;13.18;45.94
67545;BME280;54380;47.770;11.150;2023-04-01T08:30:20;93753.28;;;13.25;46.12
67545;BME280;54380;47.770;11.150;2023-04-01T08:32:51;93728.09;;;13.28;45.85
67545;BME280;54380;47.770;11.150;2023-04-01T08:35:29;93721.94;;;13.32;45.25
67545;BME280;54380;47.770;11.150;2023-04-01T08:38:06;93720.06;;;13.33;44.99
67545;BME280;54380;47.770;11.150;2023-04-01T08:40:56;93717.97;;;13.44;45.48
67545;BME280;54380;47.770;11.150;2023-04-01T08:43:51;93713.94;;;13.60;44.12
67545;BME280;54380;47.770;11.150;2023-04-01T08:46:41;93700.97;;;13.72;44.26
67545;BME280;54380;47.770;11.150;2023-04-01T08:49:32;93702.09;;;13.94;44.28
67545;BME280;54380;47.770;11.150;2023-04-01T08:52:34;93713.06;;;14.23;43.84
67545;BME280;54380;47.770;11.150;2023-04-01T08:55:31;93703.34;;;14.19;43.08
67545;BME280;54380;47.770;11.150;2023-04-01T08:58:31;93703.97;;;14.16;43.50
67545;BME280;54380;47.770;11.150;2023-04-01T09:01:29;93707.66;;;14.28;44.11
67545;BME280;54380;47.770;11.150;2023-04-01T09:04:11;93713.06;;;14.23;42.85
67545;BME280;54380;47.770;11.150;2023-04-01T09:06:45;93707.34;;;14.08;43.33
67545;BME280;54380;47.770;11.150;2023-04-01T09:09:35;93714.75;;;13.97;42.99
67545;BME280;54380;47.770;11.150;2023-04-01T09:12:19;93720.59;;;13.85;43.84
67545;BME280;54380;47.770;11.150;2023-04-01T09:15:15;93718.66;;;13.99;43.21
67545;BME280;54380;47.770;11.150;2023-04-01T09:17:59;93706.78;;;13.97;42.09
67545;BME280;54380;47.770;11.150;2023-04-01T09:20:47;93702.91;;;14.03;41.60
67545;BME280;54380;47.770;11.150;2023-04-01T09:23:33;93693.44;;;13.88;42.54
67545;BME280;54380;47.770;11.150;2023-04-01T09:26:24;93701.91;;;13.76;43.05
67545;BME280;54380;47.770;11.150;2023-04-01T09:29:03;93692.34;;;13.67;43.02
67545;BME280;54380;47.770;11.150;2023-04-01T09:31:48;93704.00;;;13.66;42.69
67545;BME280;54380;47.770;11.150;2023-04-01T09:34:53;93694.97;;;13.67;43.46
67545;BME280;54380;47.770;11.150;2023-04-01T09:37:34;93681.72;;;13.67;43.37
67545;BME280;54380;47.770;11.150;2023-04-01T09:40:16;93684.47;;;13.61;42.37
67545;BME280;54380;47.770;11.150;2023-04-01T09:43:06;93693.16;;;13.53;42.55
67545;BME280;54380;47.770;11.150;2023-04-01T09:45:55;93686.25;;;13.52;43.04
67545;BME280;54380;47.770;11.150;2023-04-01T09:48:39;93674.09;;;13.51;43.78
67545;BME280;54380;47.770;11.150;2023-04-01T09:51:22;93693.59;;;13.55;42.62
67545;BME280;54380;47.770;11.150;2023-04-01T09:54:02;93668.88;;;13.60;43.14
67545;BME280;54380;47.770;11.150;2023-04-01T10:03:30;93674.00;;;13.56;42.40
67545;BME280;54380;47.770;11.150;2023-04-01T10:06:49;93680.06;;;13.57;42.53
67545;BME280;54380;47.770;11.150;2023-04-01T10:15:56;93665.38;;;13.73;42.59
67545;BME280;54380;47.770;11.150;2023-04-01T10:21:45;93672.78;;;13.99;42.00
67545;BME280;54380;47.770;11.150;2023-04-01T10:24:35;93686.78;;;13.91;42.39
67545;BME280;54380;47.770;11.150;2023-04-01T10:27:29;93701.09;;;13.90;42.58
67545;BME280;54380;47.770;11.150;2023-04-01T10:30:31;93705.78;;;13.93;42.09
67545;BME280;54380;47.770;11.150;2023-04-01T10:33:23;93682.91;;;13.97;42.76
67545;BME280;54380;47.770;11.150;2023-04-01T10:39:42;93690.56;;;14.21;42.69
67545;BME280;54380;47.770;11.150;2023-04-01T10:46:19;93688.72;;;14.44;42.84
67545;BME280;54380;47.770;11.150;2023-04-01T10:49:11;93680.25;;;14.42;42.14
67545;BME280;54380;47.770;11.150;2023-04-01T10:52:18;93684.38;;;14.25;42.28
67545;BME280;54380;47.770;11.150;2023-04-01T10:55:32;93682.50;;;14.26;41.22
67545;BME280;54380;47.770;11.150;2023-04-01T11:05:57;93684.91;;;14.14;43.41
67545;BME280;54380;47.770;11.150;2023-04-01T11:08:52;93672.72;;;14.13;42.76
67545;BME280;54380;47.770;11.150;2023-04-01T11:21:11;93698.09;;;14.05;43.27
67545;BME280;54380;47.770;11.150;2023-04-01T11:23:54;93704.78;;;14.02;43.37
67545;BME280;54380;47.770;11.150;2023-04-01T11:26:44;93698.44;;;13.90;43.55
67545;BME280;54380;47.770;11.150;2023-04-01T11:30:02;93712.63;;;13.71;43.32
67545;BME280;54380;47.770;11.150;2023-04-01T11:32:41;93724.94;;;13.67;44.47
67545;BME280;54380;47.770;11.150;2023-04-01T11:35:46;93728.66;;;13.66;44.18
67545;BME280;54380;47.770;11.150;2023-04-01T11:38:25;93716.00;;;13.49;44.67
67545;BME280;54380;47.770;11.150;2023-04-01T11:41:07;93735.53;;;13.39;44.69
67545;BME280;54380;47.770;11.150;2023-04-01T11:44:14;93727.31;;;13.27;45.40
67545;BME280;54380;47.770;11.150;2023-04-01T11:47:22;93738.28;;;13.21;45.49
67545;BME280;54380;47.770;11.150;2023-04-01T11:50:04;93746.13;;;13.12;45.36
67545;BME280;54380;47.770;11.150;2023-04-01T11:52:55;93731.38;;;13.06;46.24
67545;BME280;54380;47.770;11.150;2023-04-01T11:55:43;93733.94;;;12.97;45.98
67545;BME280;54380;47.770;11.150;2023-04-01T12:01:36;93753.50;;;12.68;46.47
67545;BME280;54380;47.770;11.150;2023-04-01T12:04:30;93757.09;;;12.59;47.08
67545;BME280;54380;47.770;11.150;2023-04-01T12:07:12;93759.03;;;12.53;47.89
67545;BME280;54380;47.770;11.150;2023-04-01T12:09:48;93764.91;;;12.50;47.73
67545;BME280;54380;47.770;11.150;2023-04-01T12:12:23;93765.28;;;12.43;47.78
67545;BME280;54380;47.770;11.150;2023-04-01T12:15:02;93760.06;;;12.38;48.53
67545;BME280;54380;47.770;11.150;2023-04-01T12:17:39;93757.69;;;12.37;48.68
67545;BME280;54380;47.770;11.150;2023-04-01T12:20:28;93765.38;;;12.38;48.82
67545;BME280;54380;47.770;11.150;2023-04-01T12:23:04;93745.13;;;12.28;47.94
67545;BME280;54380;47.770;11.150;2023-04-01T12:28:44;93745.81;;;12.01;48.52
67545;BME280;54380;47.770;11.150;2023-04-01T12:31:29;93750.06;;;11.97;48.00
67545;BME280;54380;47.770;11.150;2023-04-01T12:37:01;93757.41;;;11.81;48.92
67545;BME280;54380;47.770;11.150;2023-04-01T12:39:48;93740.31;;;11.74;47.46
67545;BME280;54380;47.770;11.150;2023-04-01T12:42:31;93750.47;;;11.67;48.50
67545;BME280;54380;47.770;11.150;2023-04-01T12:45:11;93754.47;;;11.64;48.91
67545;BME280;54380;47.770;11.150;2023-04-01T12:47:56;93746.03;;;11.62;47.74
67545;BME280;54380;47.770;11.150;2023-04-01T12:50:38;93751.94;;;11.54;48.79
67545;BME280;54380;47.770;11.150;2023-04-01T12:53:28;93743.44;;;11.57;48.60
67545;BME280;54380;47.770;11.150;2023-04-01T12:56:03;93746.66;;;11.54;48.69
67545;BME280;54380;47.770;11.150;2023-04-01T13:02:12;93743.16;;;11.58;49.97
67545;BME280;54380;47.770;11.150;2023-04-01T13:05:06;93748.53;;;11.53;48.57
67545;BME280;54380;47.770;11.150;2023-04-01T13:07:53;93753.31;;;11.51;48.77
67545;BME280;54380;47.770;11.150;2023-04-01T13:10:46;93770.34;;;11.64;49.37
67545;BME280;54380;47.770;11.150;2023-04-01T13:13:31;93754.88;;;11.71;49.46
67545;BME280;54380;47.770;11.150;2023-04-01T13:16:08;93760.88;;;11.77;49.21
67545;BME280;54380;47.770;11.150;2023-04-01T13:18:52;93765.34;;;11.81;49.06
67545;BME280;54380;47.770;11.150;2023-04-01T13:24:24;93767.94;;;11.86;49.23
67545;BME280;54380;47.770;11.150;2023-04-01T13:26:59;93785.31;;;11.93;49.26
67545;BME280;54380;47.770;11.150;2023-04-01T13:29:33;93778.19;;;11.93;48.94
67545;BME280;54380;47.770;11.150;2023-04-01T13:32:13;93773.09;;;11.97;48.78
67545;BME280;54380;47.770;11.150;2023-04-01T13:34:56;93781.47;;;12.04;49.25
67545;BME280;54380;47.770;11.150;2023-04-01T13:37:39;93769.59;;;12.01;47.76
67545;BME280;54380;47.770;11.150;2023-04-01T13:40:40;93764.16;;;11.93;48.34
67545;BME280;54380;47.770;11.150;2023-04-01T13:43:31;93751.72;;;11.93;48.84
67545;BME280;54380;47.770;11.150;2023-04-01T13:46:23;93770.19;;;11.98;46.46
67545;BME280;54380;47.770;11.150;2023-04-01T13:49:26;93772.06;;;11.93;48.56
67545;BME280;54380;47.770;11.150;2023-04-01T13:55:30;93755.84;;;11.80;48.35
67545;BME280;54380;47.770;11.150;2023-04-01T13:58:13;93762.13;;;11.84;48.94
67545;BME280;54380;47.770;11.150;2023-04-01T14:00:47;93772.69;;;11.84;48.54
67545;BME280;54380;47.770;11.150;2023-04-01T14:03:39;93747.81;;;11.91;49.07
67545;BME280;54380;47.770;11.150;2023-04-01T14:06:14;93750.47;;;11.85;49.23
67545;BME280;54380;47.770;11.150;2023-04-01T14:08:59;93762.66;;;11.86;48.98
67545;BME280;54380;47.770;11.150;2023-04-01T14:11:39;93771.59;;;11.91;48.87
67545;BME280;54380;47.770;11.150;2023-04-01T14:14:18;93766.00;;;11.92;48.19
67545;BME280;54380;47.770;11.150;2023-04-01T14:16:59;93776.09;;;11.90;48.79
67545;BME280;54380;47.770;11.150;2023-04-01T14:19:39;93785.41;;;11.88;48.51
67545;BME280;54380;47.770;11.150;2023-04-01T14:22:15;93772.22;;;11.82;48.71
67545;BME280;54380;47.770;11.150;2023-04-01T14:25:03;93762.41;;;11.83;49.09
67545;BME280;54380;47.770;11.150;2023-04-01T14:27:52;93780.16;;;11.82;48.92
67545;BME280;54380;47.770;11.150;2023-04-01T14:30:41;93786.22;;;11.83;48.69
67545;BME280;54380;47.770;11.150;2023-04-01T14:33:20;93801.63;;;11.76;49.71
67545;BME280;54380;47.770;11.150;2023-04-01T14:35:56;93809.84;;;11.74;49.68
67545;BME280;54380;47.770;11.150;2023-04-01T14:38:46;93827.06;;;11.72;49.71
67545;BME280;54380;47.770;11.150;2023-04-01T14:41:30;93818.31;;;11.71;50.35
67545;BME280;54380;47.770;11.150;2023-04-01T14:44:35;93808.38;;;11.63;51.10
67545;BME280;54380;47.770;11.150;2023-04-01T14:47:39;93811.09;;;11.58;51.28
67545;BME280;54380;47.770;11.150;2023-04-01T14:50:13;93795.28;;;11.53;51.34
67545;BME280;54380;47.770;11.150;2023-04-01T14:52:47;93797.16;;;11.52;51.38
67545;BME280;54380;47.770;11.150;2023-04-01T14:55:29;93799.56;;;11.49;51.80
67545;BME280;54380;47.770;11.150;2023-04-01T14:58:10;93800.31;;;11.54;51.69
67545;BME280;54380;47.770;11.150;2023-04-01T15:01:00;93806.88;;;11.57;51.70
67545;BME280;54380;47.770;11.150;2023-04-01T15:03:39;93799.47;;;11.59;52.07
67545;BME280;54380;47.770;11.150;2023-04-01T15:06:27;93802.88;;;11.59;51.76
67545;BME280;54380;47.770;11.150;2023-04-01T15:09:07;93799.47;;;11.59;50.69
67545;BME280;54380;47.770;11.150;2023-04-01T15:11:48;93797.81;;;11.63;51.35
67545;BME280;54380;47.770;11.150;2023-04-01T15:17:43;93808.41;;;11.82;51.75
67545;BME280;54380;47.770;11.150;2023-04-01T15:20:31;93817.03;;;11.93;51.28
67545;BME280;54380;47.770;11.150;2023-04-01T15:23:13;93835.72;;;12.01;51.17
67545;BME280;54380;47.770;11.150;2023-04-01T15:25:51;93829.06;;;12.04;51.15
67545;BME280;54380;47.770;11.150;2023-04-01T15:28:30;93836.56;;;11.97;51.63
67545;BME280;54380;47.770;11.150;2023-04-01T15:31:04;93846.94;;;11.93;51.84
67545;BME280;54380;47.770;11.150;2023-04-01T15:33:45;93871.31;;;11.90;52.27
67545;BME280;54380;47.770;11.150;2023-04-01T15:36:24;93857.88;;;11.81;52.73
67545;BME280;54380;47.770;11.150;2023-04-01T15:38:59;93855.28;;;11.76;52.66
67545;BME280;54380;47.770;11.150;2023-04-01T15:41:36;93852.94;;;11.75;53.40
67545;BME280;54380;47.770;11.150;2023-04-01T15:47:09;93856.06;;;11.77;52.85
67545;BME280;54380;47.770;11.150;2023-04-01T15:49:57;93853.19;;;11.73;52.98
67545;BME280;54380;47.770;11.150;2023-04-01T15:52:36;93855.91;;;11.68;53.00
67545;BME280;54380;47.770;11.150;2023-04-01T15:55:20;93858.59;;;11.63;53.32
67545;BME280;54380;47.770;11.150;2023-04-01T15:58:11;93843.53;;;11.63;53.01
67545;BME280;54380;47.770;11.150;2023-04-01T16:00:49;93854.97;;;11.59;53.09
67545;BME280;54380;47.770;11.150;2023-04-01T16:03:30;93854.97;;;11.59;52.84
67545;BME280;54380;47.770;11.150;2023-04-01T16:06:23;93846.78;;;11.55;52.67
67545;BME280;54380;47.770;11.150;2023-04-01T16:09:04;93847.91;;;11.49;52.75
67545;BME280;54380;47.770;11.150;2023-04-01T16:11:41;93851.06;;;11.51;52.76
67545;BME280;54380;47.770;11.150;2023-04-01T16:14:22;93841.03;;;11.53;53.24
67545;BME280;54380;47.770;11.150;2023-04-01T16:17:05;93841.81;;;11.54;53.18
67545;BME280;54380;47.770;11.150;2023-04-01T16:19:41;93843.66;;;11.53;52.98
67545;BME280;54380;47.770;11.150;2023-04-01T16:22:20;93836.28;;;11.50;52.86
67545;BME280;54380;47.770;11.150;2023-04-01T16:24:51;93842.13;;;11.47;52.99
67545;BME280;54380;47.770;11.150;2023-04-01T16:27:27;93844.50;;;11.49;52.71
67545;BME280;54380;47.770;11.150;2023-04-01T16:30:00;93844.75;;;11.47;53.16
67545;BME280;54380;47.770;11.150;2023-04-01T16:32:37;93842.91;;;11.48;53.05
67545;BME280;54380;47.770;11.150;2023-04-01T16:35:21;93842.41;;;11.46;52.98
67545;BME280;54380;47.770;11.150;2023-04-01T16:37:53;93847.47;;;11.42;52.95
67545;BME280;54380;47.770;11.150;2023-04-01T16:40:26;93843.78;;;11.43;53.02
67545;BME280;54380;47.770;11.150;2023-04-01T16:43:12;93840.03;;;11.44;52.81
67545;BME280;54380;47.770;11.150;2023-04-01T16:45:43;93838.75;;;11.41;53.13
67545;BME280;54380;47.770;11.150;2023-04-01T16:48:15;93832.16;;;11.39;52.77
67545;BME280;54380;47.770;11.150;2023-04-01T16:50:51;93834.50;;;11.46;52.77
67545;BME280;54380;47.770;11.150;2023-04-01T16:53:30;93840.25;;;11.48;53.24
67545;BME280;54380;47.770;11.150;2023-04-01T16:56:09;93839.78;;;11.46;52.80
67545;BME280;54380;47.770;11.150;2023-04-01T16:58:41;93841.59;;;11.45;52.70
67545;BME280;54380;47.770;11.150;2023-04-01T17:01:13;93853.00;;;11.46;53.13
67545;BME280;54380;47.770;11.150;2023-04-01T17:03:45;93858.75;;;11.48;53.00
67545;BME280;54380;47.770;11.150;2023-04-01T17:06:44;93870.41;;;11.47;52.86
67545;BME280;54380;47.770;11.150;2023-04-01T17:09:24;93877.03;;;11.44;52.89
67545;BME280;54380;47.770;11.150;2023-04-01T17:12:00;93877.88;;;11.39;53.27
67545;BME280;54380;47.770;11.150;2023-04-01T17:14:40;93857.84;;;11.33;53.14
67545;BME280;54380;47.770;11.150;2023-04-01T17:17:23;93881.50;;;11.19;53.14
67545;BME280;54380;47.770;11.150;2023-04-01T17:22:48;93865.09;;;10.93;54.32
67545;BME280;54380;47.770;11.150;2023-04-01T17:25:34;93878.31;;;10.88;54.14
67545;BME280;54380;47.770;11.150;2023-04-01T17:28:14;93880.44;;;10.86;54.76
67545;BME280;54380;47.770;11.150;2023-04-01T17:30:49;93889.16;;;10.87;54.56
67545;BME280;54380;47.770;11.150;2023-04-01T17:33:44;93891.53;;;10.88;54.83
67545;BME280;54380;47.770;11.150;2023-04-01T17:36:25;93897.59;;;10.89;54.78
67545;BME280;54380;47.770;11.150;2023-04-01T17:39:18;93898.94;;;10.86;54.10
67545;BME280;54380;47.770;11.150;2023-04-01T17:41:54;93889.25;;;10.71;54.78
67545;BME280;54380;47.770;11.150;2023-04-01T17:44:33;93894.84;;;10.65;54.64
67545;BME280;54380;47.770;11.150;2023-04-01T17:47:25;93896.19;;;10.62;55.29
67545;BME280;54380;47.770;11.150;2023-04-01T17:50:02;93890.13;;;10.62;54.63
67545;BME280;54380;47.770;11.150;2023-04-01T17:52:39;93895.38;;;10.67;54.91
67545;BME280;54380;47.770;11.150;2023-04-01T17:55:31;93897.47;;;10.70;55.00
67545;BME280;54380;47.770;11.150;2023-04-01T17:58:16;93893.78;;;10.66;54.32
67545;BME280;54380;47.770;11.150;2023-04-01T18:00:51;93895.69;;;10.55;54.91
67545;BME280;54380;47.770;11.150;2023-04-01T18:03:51;93892.88;;;10.46;55.35
67545;BME280;54380;47.770;11.150;2023-04-01T18:06:29;93916.41;;;10.38;54.58
67545;BME280;54380;47.770;11.150;2023-04-01T18:09:06;93913.81;;;10.27;55.15
67545;BME280;54380;47.770;11.150;2023-04-01T18:11:44;93925.38;;;10.21;55.18
67545;BME280;54380;47.770;11.150;2023-04-01T18:17:57;93915.91;;;10.20;54.67
67545;BME280;54380;47.770;11.150;2023-04-01T18:20:37;93915.13;;;10.20;55.04
67545;BME280;54380;47.770;11.150;2023-04-01T18:23:19;93923.31;;;10.18;54.84
67545;BME280;54380;47.770;11.150;2023-04-01T18:25:48;93926.22;;;10.17;55.24
67545;BME280;54380;47.770;11.150;2023-04-01T18:28:26;93918.81;;;10.14;55.00
67545;BME280;54380;47.770;11.150;2023-04-01T18:31:05;93919.63;;;10.14;54.65
67545;BME280;54380;47.770;11.150;2023-04-01T18:33:46;93923.84;;;10.15;54.81
67545;BME280;54380;47.770;11.150;2023-04-01T18:36:20;93916.47;;;10.12;54.51
67545;BME280;54380;47.770;11.150;2023-04-01T18:38:52;93912.53;;;10.09;53.83
67545;BME280;54380;47.770;11.150;2023-04-01T18:41:26;93908.34;;;10.08;53.30
67545;BME280;54380;47.770;11.150;2023-04-01T18:44:22;93913.06;;;10.06;54.27
67545;BME280;54380;47.770;11.150;2023-04-01T18:46:57;93926.53;;;10.00;54.53
67545;BME280;54380;47.770;11.150;2023-04-01T18:49:33;93923.38;;;9.98;54.65
67545;BME280;54380;47.770;11.150;2023-04-01T18:52:08;93928.16;;;9.96;54.89
67545;BME280;54380;47.770;11.150;2023-04-01T18:54:43;93932.59;;;9.95;54.40
67545;BME280;54380;47.770;11.150;2023-04-01T18:57:13;93920.78;;;9.93;54.71
67545;BME280;54380;47.770;11.150;2023-04-01T18:59:42;93935.53;;;9.94;54.41
67545;BME280;54380;47.770;11.150;2023-04-01T19:02:20;93928.94;;;9.91;54.55
67545;BME280;54380;47.770;11.150;2023-04-01T19:05:00;93931.31;;;9.93;55.03
67545;BME280;54380;47.770;11.150;2023-04-01T19:07:40;93929.19;;;9.95;54.47
67545;BME280;54380;47.770;11.150;2023-04-01T19:10:22;93928.94;;;9.96;54.92
67545;BME280;54380;47.770;11.150;2023-04-01T19:13:02;93925.50;;;9.96;55.50
67545;BME280;54380;47.770;11.150;2023-04-01T19:15:39;93936.06;;;9.96;54.45
67545;BME280;54380;47.770;11.150;2023-04-01T19:18:26;93935.25;;;9.95;54.44
67545;BME280;54380;47.770;11.150;2023-04-01T19:21:04;93941.06;;;9.92;54.48
67545;BME280;54380;47.770;11.150;2023-04-01T19:23:53;93942.91;;;9.92;54.87
67545;BME280;54380;47.770;11.150;2023-04-01T19:26:27;93949.25;;;9.91;54.43
67545;BME280;54380;47.770;11.150;2023-04-01T19:28:59;93950.56;;;9.88;54.33
67545;BME280;54380;47.770;11.150;2023-04-01T19:31:46;93948.72;;;9.83;54.37
67545;BME280;54380;47.770;11.150;2023-04-01T19:34:27;93947.19;;;9.77;54.99
67545;BME280;54380;47.770;11.150;2023-04-01T19:37:07;93949.00;;;9.77;54.26
67545;BME280;54380;47.770;11.150;2023-04-01T19:39:48;93956.91;;;9.77;54.45
67545;BME280;54380;47.770;11.150;2023-04-01T19:42:27;93952.47;;;9.72;53.53
67545;BME280;54380;47.770;11.150;2023-04-01T19:45:07;93951.16;;;9.70;53.41
67545;BME280;54380;47.770;11.150;2023-04-01T19:47:53;93955.34;;;9.65;52.94
67545;BME280;54380;47.770;11.150;2023-04-01T19:50:31;93952.19;;;9.63;53.21
67545;BME280;54380;47.770;11.150;2023-04-01T19:53:21;93951.41;;;9.58;53.00
67545;BME280;54380;47.770;11.150;2023-04-01T19:56:01;93949.06;;;9.56;53.60
67545;BME280;54380;47.770;11.150;2023-04-01T19:58:35;93959.06;;;9.54;53.12
67545;BME280;54380;47.770;11.150;2023-04-01T20:01:10;93960.63;;;9.55;53.70
67545;BME280;54380;47.770;11.150;2023-04-01T20:03:43;93964.59;;;9.53;53.38
67545;BME280;54380;47.770;11.150;2023-04-01T20:06:28;93975.41;;;9.56;54.11
67545;BME280;54380;47.770;11.150;2023-04-01T20:09:34;93960.63;;;9.60;53.65
67545;BME280;54380;47.770;11.150;2023-04-01T20:12:14;93969.31;;;9.61;52.92
67545;BME280;54380;47.770;11.150;2023-04-01T20:14:47;93964.34;;;9.59;52.98
67545;BME280;54380;47.770;11.150;2023-04-01T20:17:18;93967.22;;;9.58;52.89
67545;BME280;54380;47.770;11.150;2023-04-01T20:20:18;93975.13;;;9.58;53.14
67545;BME280;54380;47.770;11.150;2023-04-01T20:23:03;93967.22;;;9.58;53.07
67545;BME280;54380;47.770;11.150;2023-04-01T20:25:40;93966.44;;;9.57;53.42
67545;BME280;54380;47.770;11.150;2023-04-01T20:28:19;93965.66;;;9.57;52.76
67545;BME280;54380;47.770;11.150;2023-04-01T20:37:06;93977.75;;;9.58;53.14
67545;BME280;54380;47.770;11.150;2023-04-01T20:39:52;93979.09;;;9.55;53.01
67545;BME280;54380;47.770;11.150;2023-04-01T20:42:53;93978.84;;;9.52;53.69
67545;BME280;54380;47.770;11.150;2023-04-01T20:45:33;93983.56;;;9.44;53.27
67545;BME280;54380;47.770;11.150;2023-04-01T20:48:22;93973.03;;;9.39;53.37
67545;BME280;54380;47.770;11.150;2023-04-01T20:50:56;93983.06;;;9.37;54.38
67545;BME280;54380;47.770;11.150;2023-04-01T20:53:28;93989.91;;;9.38;54.09
67545;BME280;54380;47.770;11.150;2023-04-01T20:56:12;93987.81;;;9.40;54.70
67545;BME280;54380;47.770;11.150;2023-04-01T20:58:53;93992.53;;;9.43;53.67
67545;BME280;54380;47.770;11.150;2023-04-01T21:01:32;93988.06;;;9.44;53.78
67545;BME280;54380;47.770;11.150;2023-04-01T21:04:27;93989.38;;;9.41;54.06
67545;BME280;54380;47.770;11.150;2023-04-01T21:07:16;93993.31;;;9.39;54.30
67545;BME280;54380;47.770;11.150;2023-04-01T21:13:10;94000.44;;;9.33;53.52
67545;BME280;54380;47.770;11.150;2023-04-01T21:15:53;94003.31;;;9.32;54.05
67545;BME280;54380;47.770;11.150;2023-04-01T21:18:35;94002.53;;;9.26;54.74
67545;BME280;54380;47.770;11.150;2023-04-01T21:24:44;94008.31;;;9.13;55.00
67545;BME280;54380;47.770;11.150;2023-04-01T21:27:27;94002.81;;;9.09;55.00
67545;BME280;54380;47.770;11.150;2023-04-01T21:30:12;94011.47;;;9.10;54.64
67545;BME280;54380;47.770;11.150;2023-04-01T21:33:05;94011.22;;;9.11;55.28
67545;BME280;54380;47.770;11.150;2023-04-01T21:35:41;94012.00;;;9.12;55.07
67545;BME280;54380;47.770;11.150;2023-04-01T21:38:34;94011.75;;;9.13;54.77
67545;BME280;54380;47.770;11.150;2023-04-01T21:41:34;94015.44;;;9.12;54.97
67545;BME280;54380;47.770;11.150;2023-04-01T21:44:21;94006.75;;;9.12;55.02
67545;BME280;54380;47.770;11.150;2023-04-01T21:47:24;94017.00;;;9.13;55.17
67545;BME280;54380;47.770;11.150;2023-04-01T21:50:14;94012.81;;;9.12;54.85
67545;BME280;54380;47.770;11.150;2023-04-01T21:53:07;94017.00;;;9.13;54.80
67545;BME280;54380;47.770;11.150;2023-04-01T22:02:04;94030.97;;;9.14;55.03
67545;BME280;54380;47.770;11.150;2023-04-01T22:04:49;94036.25;;;9.14;55.07
67545;BME280;54380;47.770;11.150;2023-04-01T22:07:44;94040.69;;;9.13;55.29
67545;BME280;54380;47.770;11.150;2023-04-01T22:10:20;94034.13;;;9.11;54.82
67545;BME280;54380;47.770;11.150;2023-04-01T22:13:04;94042.00;;;9.11;55.69
67545;BME280;54380;47.770;11.150;2023-04-01T22:15:51;94041.50;;;9.09;55.03
67545;BME280;54380;47.770;11.150;2023-04-01T22:18:23;94043.59;;;9.07;55.42
67545;BME280;54380;47.770;11.150;2023-04-01T22:20:59;94037.78;;;9.05;55.64
67545;BME280;54380;47.770;11.150;2023-04-01T22:23:38;94044.63;;;9.06;55.09
67545;BME280;54380;47.770;11.150;2023-04-01T22:26:13;94043.34;;;9.03;55.15
67545;BME280;54380;47.770;11.150;2023-04-01T22:28:47;94040.19;;;9.06;55.14
67545;BME280;54380;47.770;11.150;2023-04-01T22:31:20;94040.97;;;9.07;55.24
67545;BME280;54380;47.770;11.150;2023-04-01T22:33:56;94037.78;;;9.05;55.49
67545;BME280;54380;47.770;11.150;2023-04-01T22:36:33;94047.00;;;9.07;54.95
67545;BME280;54380;47.770;11.150;2023-04-01T22:39:19;94046.25;;;9.12;55.07
67545;BME280;54380;47.770;11.150;2023-04-01T22:42:00;94055.16;;;9.11;54.96
67545;BME280;54380;47.770;11.150;2023-04-01T22:44:42;94065.44;;;9.12;54.86
67545;BME280;54380;47.770;11.150;2023-04-01T22:47:17;94056.78;;;9.12;54.98
67545;BME280;54380;47.770;11.150;2023-04-01T22:49:50;94058.88;;;9.15;55.00
67545;BME280;54380;47.770;11.150;2023-04-01T22:52:23;94063.09;;;9.21;54.61
67545;BME280;54380;47.770;11.150;2023-04-01T22:55:00;94058.88;;;9.20;55.04
67545;BME280;54380;47.770;11.150;2023-04-01T22:57:38;94062.31;;;9.26;55.25
67545;BME280;54380;47.770;11.150;2023-04-01T23:00:13;94057.84;;;9.26;55.41
67545;BME280;54380;47.770;11.150;2023-04-01T23:02:45;94052.56;;;9.26;54.74
67545;BME280;54380;47.770;11.150;2023-04-01T23:05:17;94068.13;;;9.28;54.77
67545;BME280;54380;47.770;11.150;2023-04-01T23:07:51;94063.63;;;9.28;55.21